首页
METAR-TAF:

METAR-TAF

机场 :

马德普拉塔, 阿根廷

纬度: 37-56S, 经度: 057-35W, 海拔: 18米

当前天气观测

该预报发布于43分钟前的14:00 UTC
风速5节,风向北转东北,在北转西北东北之间变化
温度 20°C
湿度 88%
气压 1020 hPa
能见度10公里或以上
多云层高于800英尺
阴天层高于1300英尺

METAR: SAZM 251400Z 02005KT 340V050 9999 BKN008 OVC013 20/18 Q1020

时间: 11:43 (14:43 UTC)

预报

该预报发布于3小时和43分钟前的11:00 UTC
预报有效从25日的 12点(UTC)到 26日的 12点(UTC)
风速10节,风向东北
能見度: 8000
多云层高于800英尺
雨, 轻雾
成为
从 25日的 13点(UTC)到 25日的 15点(UTC)
风速3节,风向多变
能见度10公里或以上
多云层高于2500英尺
成为
从 26日的 01点(UTC)到 26日的 03点(UTC)
风速5节,风向
能見度: 7000
散云层高于1000英尺
轻雾

TAF: SAZM 251100Z 2512/2612 05010KT 8000 RA BR BKN008 TX20/2518Z TN13/2609Z BECMG 2513/2515 VRB03KT 9999 BKN025 BECMG 2601/2603 36005KT 7000 BR SCT010

超过4000个机场的气象观测和天气预报(METAR&TAF报告)。

可查询的气象台以黄色和红色小点在地图上表示。

将鼠标移到小点上方,可查看气象台名称。

然后点击查看天气观测和预报。

如需切换地图:点击带黑十字的绿色按钮放大地图;点击带横线的绿色按钮缩小地图;或者点击绿色箭头查看邻近地区的地图。


METAR-TAF: